KSNL

Shawnee Regional Airport

Shawnee, Oklahoma, USA
METAR KSNL 252215Z AUTO 24003KT 10SM VCTS BKN100 BKN120 21/18 A2988 RMK AO2 LTG DSNT E AND SE T02120180
Observed Flight Rules
May-25 @ 22:15 UTC (24 minutes ago) Visual Flight Rules
Wind Visibility Clouds Conditions
240° at 3 knots 10 miles
  • Broken at 10,000' AGL
  • Broken at 12,000' AGL
  • Area Thunderstorm
Temperatures Readings
Current 21°C / 70°F
Dewpoint 18°C / 64°F
Humidity 83%
Altimeter 29.88" Hg
Pressure 1012 hPa
Elevation 327
METAR KSNL 252215Z AUTO 24003KT 10SM VCTS BKN100 BKN120 21/18 A2988 RMK AO2 LTG DSNT E AND SE T02120180
Observed Flight Rules
May-25 @ 22:15 UTC
(24 minutes ago)
VFR
Wind Visibility
240° at 3 knots 10 miles
Clouds
  • Broken at 10,000' AGL
  • Broken at 12,000' AGL
Conditions
  • Area Thunderstorm
Temperature Dewpoint
21°C / 70°F 18°C / 64°F
Humidity Altimeter Pressure
83% 29.88" Hg 1012 hPa